sensor_id;sensor_type;location;lat;lon;timestamp;temperature;humidity
64796;DHT22;51229;51.980;6.722;2023-03-31T00:01:59;6.90;99.90
64796;DHT22;51229;51.980;6.722;2023-03-31T00:04:27;6.90;99.90
64796;DHT22;51229;51.980;6.722;2023-03-31T00:06:53;6.80;99.90
64796;DHT22;51229;51.980;6.722;2023-03-31T00:09:19;6.90;99.90
64796;DHT22;51229;51.980;6.722;2023-03-31T00:11:50;6.80;99.90
64796;DHT22;51229;51.980;6.722;2023-03-31T00:14:18;6.80;99.90
64796;DHT22;51229;51.980;6.722;2023-03-31T00:16:44;6.90;99.90
64796;DHT22;51229;51.980;6.722;2023-03-31T00:19:11;6.90;99.90
64796;DHT22;51229;51.980;6.722;2023-03-31T00:21:45;6.80;99.90
64796;DHT22;51229;51.980;6.722;2023-03-31T00:24:13;6.90;99.90
64796;DHT22;51229;51.980;6.722;2023-03-31T00:26:39;6.90;99.90
64796;DHT22;51229;51.980;6.722;2023-03-31T00:29:06;6.80;99.90
64796;DHT22;51229;51.980;6.722;2023-03-31T00:31:33;6.80;99.90
64796;DHT22;51229;51.980;6.722;2023-03-31T00:33:59;6.70;99.90
64796;DHT22;51229;51.980;6.722;2023-03-31T00:36:26;6.60;99.90
64796;DHT22;51229;51.980;6.722;2023-03-31T00:39:04;6.80;99.90
64796;DHT22;51229;51.980;6.722;2023-03-31T00:41:35;6.70;99.90
64796;DHT22;51229;51.980;6.722;2023-03-31T00:47:01;6.60;99.90
64796;DHT22;51229;51.980;6.722;2023-03-31T00:49:47;6.70;99.90
64796;DHT22;51229;51.980;6.722;2023-03-31T00:52:43;6.70;99.90
64796;DHT22;51229;51.980;6.722;2023-03-31T00:55:13;6.60;99.90
64796;DHT22;51229;51.980;6.722;2023-03-31T00:57:42;6.60;99.90
64796;DHT22;51229;51.980;6.722;2023-03-31T01:00:11;6.70;99.90
64796;DHT22;51229;51.980;6.722;2023-03-31T01:02:42;6.70;99.90
64796;DHT22;51229;51.980;6.722;2023-03-31T01:05:21;6.70;99.90
64796;DHT22;51229;51.980;6.722;2023-03-31T01:07:48;6.70;99.90
64796;DHT22;51229;51.980;6.722;2023-03-31T01:10:15;6.60;99.90
64796;DHT22;51229;51.980;6.722;2023-03-31T01:12:43;6.70;99.90
64796;DHT22;51229;51.980;6.722;2023-03-31T01:15:10;6.70;99.90
64796;DHT22;51229;51.980;6.722;2023-03-31T01:17:36;6.70;99.90
64796;DHT22;51229;51.980;6.722;2023-03-31T01:31:38;6.30;99.90
64796;DHT22;51229;51.980;6.722;2023-03-31T01:36:49;6.20;99.90
64796;DHT22;51229;51.980;6.722;2023-03-31T01:47:44;6.20;99.90
64796;DHT22;51229;51.980;6.722;2023-03-31T01:53:08;6.20;99.90
64796;DHT22;51229;51.980;6.722;2023-03-31T01:58:39;6.10;99.90
64796;DHT22;51229;51.980;6.722;2023-03-31T02:01:18;6.10;99.90
64796;DHT22;51229;51.980;6.722;2023-03-31T02:03:51;6.10;99.90
64796;DHT22;51229;51.980;6.722;2023-03-31T02:06:21;6.10;99.90
64796;DHT22;51229;51.980;6.722;2023-03-31T02:08:53;6.10;99.90
64796;DHT22;51229;51.980;6.722;2023-03-31T02:11:23;6.20;99.90
64796;DHT22;51229;51.980;6.722;2023-03-31T02:13:52;6.10;99.90
64796;DHT22;51229;51.980;6.722;2023-03-31T02:16:25;6.20;99.90
64796;DHT22;51229;51.980;6.722;2023-03-31T02:18:55;6.50;99.90
64796;DHT22;51229;51.980;6.722;2023-03-31T02:21:35;6.50;99.90
64796;DHT22;51229;51.980;6.722;2023-03-31T02:24:10;6.30;99.90
64796;DHT22;51229;51.980;6.722;2023-03-31T02:26:40;6.20;99.90
64796;DHT22;51229;51.980;6.722;2023-03-31T02:29:07;6.20;99.90
64796;DHT22;51229;51.980;6.722;2023-03-31T02:31:51;6.10;99.90
64796;DHT22;51229;51.980;6.722;2023-03-31T02:34:20;6.20;99.90
64796;DHT22;51229;51.980;6.722;2023-03-31T02:36:48;6.40;99.90
64796;DHT22;51229;51.980;6.722;2023-03-31T02:39:22;6.30;99.90
64796;DHT22;51229;51.980;6.722;2023-03-31T02:41:48;6.20;99.90
64796;DHT22;51229;51.980;6.722;2023-03-31T02:44:16;6.10;99.90
64796;DHT22;51229;51.980;6.722;2023-03-31T02:46:44;6.10;99.90
64796;DHT22;51229;51.980;6.722;2023-03-31T02:49:11;6.10;99.90
64796;DHT22;51229;51.980;6.722;2023-03-31T03:05:21;6.00;99.90
64796;DHT22;51229;51.980;6.722;2023-03-31T03:08:26;6.00;99.90
64796;DHT22;51229;51.980;6.722;2023-03-31T03:11:13;6.00;99.90
64796;DHT22;51229;51.980;6.722;2023-03-31T03:14:11;6.00;99.90
64796;DHT22;51229;51.980;6.722;2023-03-31T03:16:44;6.10;99.90
64796;DHT22;51229;51.980;6.722;2023-03-31T03:19:20;6.10;99.90
64796;DHT22;51229;51.980;6.722;2023-03-31T03:21:47;6.10;99.90
64796;DHT22;51229;51.980;6.722;2023-03-31T03:24:16;6.10;99.90
64796;DHT22;51229;51.980;6.722;2023-03-31T03:26:43;6.20;99.90
64796;DHT22;51229;51.980;6.722;2023-03-31T03:29:10;6.20;99.90
64796;DHT22;51229;51.980;6.722;2023-03-31T03:31:40;6.20;99.90
64796;DHT22;51229;51.980;6.722;2023-03-31T03:34:06;6.20;99.90
64796;DHT22;51229;51.980;6.722;2023-03-31T03:36:32;6.20;99.90
64796;DHT22;51229;51.980;6.722;2023-03-31T03:38:57;6.20;99.90
64796;DHT22;51229;51.980;6.722;2023-03-31T03:41:23;6.30;99.90
64796;DHT22;51229;51.980;6.722;2023-03-31T03:43:49;6.30;99.90
64796;DHT22;51229;51.980;6.722;2023-03-31T03:46:14;6.20;99.90
64796;DHT22;51229;51.980;6.722;2023-03-31T03:48:40;6.20;99.90
64796;DHT22;51229;51.980;6.722;2023-03-31T03:51:06;6.20;99.90
64796;DHT22;51229;51.980;6.722;2023-03-31T03:53:31;6.20;99.90
64796;DHT22;51229;51.980;6.722;2023-03-31T03:55:57;6.20;99.90
64796;DHT22;51229;51.980;6.722;2023-03-31T03:58:23;6.10;99.90
64796;DHT22;51229;51.980;6.722;2023-03-31T04:00:49;6.20;99.90
64796;DHT22;51229;51.980;6.722;2023-03-31T04:03:15;6.10;99.90
64796;DHT22;51229;51.980;6.722;2023-03-31T04:05:41;6.10;99.90
64796;DHT22;51229;51.980;6.722;2023-03-31T04:08:07;6.10;99.90
64796;DHT22;51229;51.980;6.722;2023-03-31T04:10:33;6.10;99.90
64796;DHT22;51229;51.980;6.722;2023-03-31T04:13:00;6.10;99.90
64796;DHT22;51229;51.980;6.722;2023-03-31T04:15:25;6.10;99.90
64796;DHT22;51229;51.980;6.722;2023-03-31T04:17:51;6.10;99.90
64796;DHT22;51229;51.980;6.722;2023-03-31T04:20:19;6.10;99.90
64796;DHT22;51229;51.980;6.722;2023-03-31T04:22:45;6.10;99.90
64796;DHT22;51229;51.980;6.722;2023-03-31T04:25:15;6.10;99.90
64796;DHT22;51229;51.980;6.722;2023-03-31T04:27:46;6.10;99.90
64796;DHT22;51229;51.980;6.722;2023-03-31T04:30:15;6.10;99.90
64796;DHT22;51229;51.980;6.722;2023-03-31T04:32:58;6.10;99.90
64796;DHT22;51229;51.980;6.722;2023-03-31T04:35:26;6.10;99.90
64796;DHT22;51229;51.980;6.722;2023-03-31T04:37:53;6.10;99.90
64796;DHT22;51229;51.980;6.722;2023-03-31T04:40:23;6.10;99.90
64796;DHT22;51229;51.980;6.722;2023-03-31T04:42:49;6.10;99.90
64796;DHT22;51229;51.980;6.722;2023-03-31T04:45:16;6.10;99.90
64796;DHT22;51229;51.980;6.722;2023-03-31T04:47:42;6.10;99.90
64796;DHT22;51229;51.980;6.722;2023-03-31T04:50:08;6.10;99.90
64796;DHT22;51229;51.980;6.722;2023-03-31T04:52:35;6.10;99.90
64796;DHT22;51229;51.980;6.722;2023-03-31T04:55:01;6.10;99.90
64796;DHT22;51229;51.980;6.722;2023-03-31T04:57:27;6.00;99.90
64796;DHT22;51229;51.980;6.722;2023-03-31T04:59:52;6.10;99.90
64796;DHT22;51229;51.980;6.722;2023-03-31T05:02:18;6.00;99.90
64796;DHT22;51229;51.980;6.722;2023-03-31T05:04:50;6.10;99.90
64796;DHT22;51229;51.980;6.722;2023-03-31T05:07:17;6.00;99.90
64796;DHT22;51229;51.980;6.722;2023-03-31T05:09:44;6.00;99.90
64796;DHT22;51229;51.980;6.722;2023-03-31T05:12:09;6.00;99.90
64796;DHT22;51229;51.980;6.722;2023-03-31T05:14:35;6.00;99.90
64796;DHT22;51229;51.980;6.722;2023-03-31T05:17:01;6.00;99.90
64796;DHT22;51229;51.980;6.722;2023-03-31T05:19:27;6.00;99.90
64796;DHT22;51229;51.980;6.722;2023-03-31T05:21:52;5.90;99.90
64796;DHT22;51229;51.980;6.722;2023-03-31T05:24:18;5.90;99.90
64796;DHT22;51229;51.980;6.722;2023-03-31T05:26:44;5.90;99.90
64796;DHT22;51229;51.980;6.722;2023-03-31T05:29:17;5.90;99.90
64796;DHT22;51229;51.980;6.722;2023-03-31T05:31:43;5.90;99.90
64796;DHT22;51229;51.980;6.722;2023-03-31T05:34:09;5.90;99.90
64796;DHT22;51229;51.980;6.722;2023-03-31T05:36:35;5.90;99.90
64796;DHT22;51229;51.980;6.722;2023-03-31T05:39:06;5.90;99.90
64796;DHT22;51229;51.980;6.722;2023-03-31T05:41:32;5.90;99.90
64796;DHT22;51229;51.980;6.722;2023-03-31T05:43:58;5.90;99.90
64796;DHT22;51229;51.980;6.722;2023-03-31T05:46:24;5.90;99.90
64796;DHT22;51229;51.980;6.722;2023-03-31T05:48:51;5.90;99.90
64796;DHT22;51229;51.980;6.722;2023-03-31T05:51:17;5.90;99.90
64796;DHT22;51229;51.980;6.722;2023-03-31T05:53:42;5.90;99.90
64796;DHT22;51229;51.980;6.722;2023-03-31T05:56:08;5.90;99.90
64796;DHT22;51229;51.980;6.722;2023-03-31T05:58:35;5.90;99.90
64796;DHT22;51229;51.980;6.722;2023-03-31T06:01:07;6.00;99.90
64796;DHT22;51229;51.980;6.722;2023-03-31T06:03:34;5.90;99.90
64796;DHT22;51229;51.980;6.722;2023-03-31T06:06:01;6.00;99.90
64796;DHT22;51229;51.980;6.722;2023-03-31T06:08:28;5.90;99.90
64796;DHT22;51229;51.980;6.722;2023-03-31T06:10:54;6.00;99.90
64796;DHT22;51229;51.980;6.722;2023-03-31T06:13:20;6.00;99.90
64796;DHT22;51229;51.980;6.722;2023-03-31T06:15:53;6.00;99.90
64796;DHT22;51229;51.980;6.722;2023-03-31T06:18:19;6.00;99.90
64796;DHT22;51229;51.980;6.722;2023-03-31T06:20:45;6.00;99.90
64796;DHT22;51229;51.980;6.722;2023-03-31T06:23:10;5.90;99.90
64796;DHT22;51229;51.980;6.722;2023-03-31T06:25:39;5.90;99.90
64796;DHT22;51229;51.980;6.722;2023-03-31T06:28:05;5.90;99.90
64796;DHT22;51229;51.980;6.722;2023-03-31T06:30:32;5.90;99.90
64796;DHT22;51229;51.980;6.722;2023-03-31T06:32:58;6.10;99.90
64796;DHT22;51229;51.980;6.722;2023-03-31T06:35:24;6.00;99.90
64796;DHT22;51229;51.980;6.722;2023-03-31T06:37:49;6.00;99.90
64796;DHT22;51229;51.980;6.722;2023-03-31T06:40:15;6.00;99.90
64796;DHT22;51229;51.980;6.722;2023-03-31T06:42:41;6.00;99.90
64796;DHT22;51229;51.980;6.722;2023-03-31T06:45:07;6.00;99.90
64796;DHT22;51229;51.980;6.722;2023-03-31T06:47:33;6.10;99.90
64796;DHT22;51229;51.980;6.722;2023-03-31T06:49:58;6.10;99.90
64796;DHT22;51229;51.980;6.722;2023-03-31T06:52:24;6.20;99.90
64796;DHT22;51229;51.980;6.722;2023-03-31T06:54:50;6.10;99.90
64796;DHT22;51229;51.980;6.722;2023-03-31T06:57:15;6.30;99.90
64796;DHT22;51229;51.980;6.722;2023-03-31T06:59:41;6.20;99.90
64796;DHT22;51229;51.980;6.722;2023-03-31T07:02:09;6.20;99.90
64796;DHT22;51229;51.980;6.722;2023-03-31T07:04:35;6.30;99.90
64796;DHT22;51229;51.980;6.722;2023-03-31T07:07:00;6.30;99.90
64796;DHT22;51229;51.980;6.722;2023-03-31T07:09:26;6.30;99.90
64796;DHT22;51229;51.980;6.722;2023-03-31T07:11:52;6.30;99.90
64796;DHT22;51229;51.980;6.722;2023-03-31T07:14:17;6.30;99.90
64796;DHT22;51229;51.980;6.722;2023-03-31T07:16:43;6.30;99.90
64796;DHT22;51229;51.980;6.722;2023-03-31T07:19:09;6.20;99.90
64796;DHT22;51229;51.980;6.722;2023-03-31T07:21:36;6.20;99.90
64796;DHT22;51229;51.980;6.722;2023-03-31T07:24:03;6.20;99.90
64796;DHT22;51229;51.980;6.722;2023-03-31T07:26:28;6.20;99.90
64796;DHT22;51229;51.980;6.722;2023-03-31T07:28:54;6.20;99.90
64796;DHT22;51229;51.980;6.722;2023-03-31T07:31:22;6.10;99.90
64796;DHT22;51229;51.980;6.722;2023-03-31T07:33:47;6.10;99.90
64796;DHT22;51229;51.980;6.722;2023-03-31T07:36:13;6.10;99.90
64796;DHT22;51229;51.980;6.722;2023-03-31T07:38:40;6.10;99.90
64796;DHT22;51229;51.980;6.722;2023-03-31T07:41:12;6.10;99.90
64796;DHT22;51229;51.980;6.722;2023-03-31T07:43:39;6.10;99.90
64796;DHT22;51229;51.980;6.722;2023-03-31T07:46:05;6.20;99.90
64796;DHT22;51229;51.980;6.722;2023-03-31T07:48:33;6.10;99.90
64796;DHT22;51229;51.980;6.722;2023-03-31T07:50:59;6.10;99.90
64796;DHT22;51229;51.980;6.722;2023-03-31T07:53:30;6.10;99.90
64796;DHT22;51229;51.980;6.722;2023-03-31T07:55:56;6.10;99.90
64796;DHT22;51229;51.980;6.722;2023-03-31T07:58:22;6.10;99.90
64796;DHT22;51229;51.980;6.722;2023-03-31T08:00:48;6.00;99.90
64796;DHT22;51229;51.980;6.722;2023-03-31T08:03:13;6.10;99.90
64796;DHT22;51229;51.980;6.722;2023-03-31T08:05:40;6.10;99.90
64796;DHT22;51229;51.980;6.722;2023-03-31T08:08:05;6.10;99.90
64796;DHT22;51229;51.980;6.722;2023-03-31T08:10:31;6.10;99.90
64796;DHT22;51229;51.980;6.722;2023-03-31T08:12:57;6.10;99.90
64796;DHT22;51229;51.980;6.722;2023-03-31T08:15:23;6.10;99.90
64796;DHT22;51229;51.980;6.722;2023-03-31T08:17:49;6.00;99.90
64796;DHT22;51229;51.980;6.722;2023-03-31T08:20:15;5.90;99.90
64796;DHT22;51229;51.980;6.722;2023-03-31T08:22:40;5.90;99.90
64796;DHT22;51229;51.980;6.722;2023-03-31T08:25:07;5.90;99.90
64796;DHT22;51229;51.980;6.722;2023-03-31T08:27:37;6.00;99.90
64796;DHT22;51229;51.980;6.722;2023-03-31T08:30:07;6.00;99.90
64796;DHT22;51229;51.980;6.722;2023-03-31T08:32:34;6.10;99.90
64796;DHT22;51229;51.980;6.722;2023-03-31T08:35:00;6.10;99.90
64796;DHT22;51229;51.980;6.722;2023-03-31T08:37:26;6.10;99.90
64796;DHT22;51229;51.980;6.722;2023-03-31T08:39:53;6.10;99.90
64796;DHT22;51229;51.980;6.722;2023-03-31T08:45:16;6.40;99.90
64796;DHT22;51229;51.980;6.722;2023-03-31T08:47:44;6.40;99.90
64796;DHT22;51229;51.980;6.722;2023-03-31T08:50:17;6.50;99.90
64796;DHT22;51229;51.980;6.722;2023-03-31T08:53:07;6.50;99.90
64796;DHT22;51229;51.980;6.722;2023-03-31T08:55:54;6.40;99.90
64796;DHT22;51229;51.980;6.722;2023-03-31T08:58:41;6.30;99.90
64796;DHT22;51229;51.980;6.722;2023-03-31T09:04:44;6.20;99.90
64796;DHT22;51229;51.980;6.722;2023-03-31T09:15:49;6.30;99.90
64796;DHT22;51229;51.980;6.722;2023-03-31T09:18:33;6.30;99.90
64796;DHT22;51229;51.980;6.722;2023-03-31T09:24:11;6.40;99.90
64796;DHT22;51229;51.980;6.722;2023-03-31T09:27:04;6.50;99.90
64796;DHT22;51229;51.980;6.722;2023-03-31T09:32:14;6.50;99.90
64796;DHT22;51229;51.980;6.722;2023-03-31T09:34:40;6.70;99.90
64796;DHT22;51229;51.980;6.722;2023-03-31T09:37:09;6.70;99.90
64796;DHT22;51229;51.980;6.722;2023-03-31T09:39:35;6.70;99.90
64796;DHT22;51229;51.980;6.722;2023-03-31T09:42:01;6.70;99.90
64796;DHT22;51229;51.980;6.722;2023-03-31T09:44:44;6.70;99.90
64796;DHT22;51229;51.980;6.722;2023-03-31T09:47:17;6.70;99.90
64796;DHT22;51229;51.980;6.722;2023-03-31T09:49:45;6.70;99.90
64796;DHT22;51229;51.980;6.722;2023-03-31T09:52:25;6.80;99.90
64796;DHT22;51229;51.980;6.722;2023-03-31T09:54:53;6.90;99.90
64796;DHT22;51229;51.980;6.722;2023-03-31T09:57:27;6.90;99.90
64796;DHT22;51229;51.980;6.722;2023-03-31T09:59:53;7.00;99.90
64796;DHT22;51229;51.980;6.722;2023-03-31T10:02:33;7.20;99.90
64796;DHT22;51229;51.980;6.722;2023-03-31T10:05:00;7.30;99.90
64796;DHT22;51229;51.980;6.722;2023-03-31T10:07:26;7.40;99.90
64796;DHT22;51229;51.980;6.722;2023-03-31T10:09:53;7.60;99.90
64796;DHT22;51229;51.980;6.722;2023-03-31T10:12:21;7.80;99.90
64796;DHT22;51229;51.980;6.722;2023-03-31T10:14:51;7.90;99.90
64796;DHT22;51229;51.980;6.722;2023-03-31T10:17:22;7.90;99.90
64796;DHT22;51229;51.980;6.722;2023-03-31T10:19:58;8.00;99.90
64796;DHT22;51229;51.980;6.722;2023-03-31T10:22:31;7.80;99.90
64796;DHT22;51229;51.980;6.722;2023-03-31T10:25:15;7.90;99.90
64796;DHT22;51229;51.980;6.722;2023-03-31T10:27:44;7.80;99.90
64796;DHT22;51229;51.980;6.722;2023-03-31T10:30:16;7.80;99.90
64796;DHT22;51229;51.980;6.722;2023-03-31T10:32:42;7.70;99.90
64796;DHT22;51229;51.980;6.722;2023-03-31T10:35:20;7.90;99.90
64796;DHT22;51229;51.980;6.722;2023-03-31T10:37:52;7.90;99.90
64796;DHT22;51229;51.980;6.722;2023-03-31T10:40:30;8.30;99.90
64796;DHT22;51229;51.980;6.722;2023-03-31T10:43:16;8.70;99.90
64796;DHT22;51229;51.980;6.722;2023-03-31T10:45:50;9.00;99.90
64796;DHT22;51229;51.980;6.722;2023-03-31T10:48:28;9.10;99.90
64796;DHT22;51229;51.980;6.722;2023-03-31T10:51:19;9.10;99.90
64796;DHT22;51229;51.980;6.722;2023-03-31T10:53:54;9.50;99.90
64796;DHT22;51229;51.980;6.722;2023-03-31T11:01:31;10.00;99.90
64796;DHT22;51229;51.980;6.722;2023-03-31T11:06:56;9.70;99.90
64796;DHT22;51229;51.980;6.722;2023-03-31T11:12:16;10.00;99.90
64796;DHT22;51229;51.980;6.722;2023-03-31T11:23:39;11.00;99.90
64796;DHT22;51229;51.980;6.722;2023-03-31T11:31:51;10.60;99.90
64796;DHT22;51229;51.980;6.722;2023-03-31T11:34:42;10.60;99.90
64796;DHT22;51229;51.980;6.722;2023-03-31T11:46:14;9.60;99.90
64796;DHT22;51229;51.980;6.722;2023-03-31T11:51:20;9.50;99.90
64796;DHT22;51229;51.980;6.722;2023-03-31T11:53:50;9.50;99.90
64796;DHT22;51229;51.980;6.722;2023-03-31T11:56:17;9.50;99.90
64796;DHT22;51229;51.980;6.722;2023-03-31T11:58:48;9.50;99.90
64796;DHT22;51229;51.980;6.722;2023-03-31T12:06:48;9.50;99.90
64796;DHT22;51229;51.980;6.722;2023-03-31T12:14:26;10.20;99.90
64796;DHT22;51229;51.980;6.722;2023-03-31T12:17:02;10.20;99.90
64796;DHT22;51229;51.980;6.722;2023-03-31T12:19:44;10.30;99.90
64796;DHT22;51229;51.980;6.722;2023-03-31T12:22:19;10.30;99.90
64796;DHT22;51229;51.980;6.722;2023-03-31T12:24:46;10.10;99.90
64796;DHT22;51229;51.980;6.722;2023-03-31T12:27:23;10.10;99.90
64796;DHT22;51229;51.980;6.722;2023-03-31T12:30:05;10.10;99.90
64796;DHT22;51229;51.980;6.722;2023-03-31T12:32:39;10.00;99.90
64796;DHT22;51229;51.980;6.722;2023-03-31T12:35:20;9.90;99.90
64796;DHT22;51229;51.980;6.722;2023-03-31T12:40:45;10.10;99.90
64796;DHT22;51229;51.980;6.722;2023-03-31T12:43:35;10.10;99.90
64796;DHT22;51229;51.980;6.722;2023-03-31T12:46:22;10.10;99.90
64796;DHT22;51229;51.980;6.722;2023-03-31T12:59:40;9.90;99.90
64796;DHT22;51229;51.980;6.722;2023-03-31T13:04:41;10.20;99.90
64796;DHT22;51229;51.980;6.722;2023-03-31T13:09:48;10.20;99.90
64796;DHT22;51229;51.980;6.722;2023-03-31T13:12:25;10.10;99.90
64796;DHT22;51229;51.980;6.722;2023-03-31T13:14:54;10.20;99.90
64796;DHT22;51229;51.980;6.722;2023-03-31T13:17:37;10.20;99.90
64796;DHT22;51229;51.980;6.722;2023-03-31T13:20:24;10.30;99.90
64796;DHT22;51229;51.980;6.722;2023-03-31T13:23:00;10.40;99.90
64796;DHT22;51229;51.980;6.722;2023-03-31T13:27:57;10.50;99.90
64796;DHT22;51229;51.980;6.722;2023-03-31T13:33:14;10.60;99.90
64796;DHT22;51229;51.980;6.722;2023-03-31T13:35:44;10.50;99.90
64796;DHT22;51229;51.980;6.722;2023-03-31T13:38:43;10.60;99.90
64796;DHT22;51229;51.980;6.722;2023-03-31T13:50:17;10.30;99.90
64796;DHT22;51229;51.980;6.722;2023-03-31T14:07:40;10.50;99.90
64796;DHT22;51229;51.980;6.722;2023-03-31T14:13:02;10.50;99.90
64796;DHT22;51229;51.980;6.722;2023-03-31T14:15:28;10.60;99.90
64796;DHT22;51229;51.980;6.722;2023-03-31T14:17:54;10.50;99.90
64796;DHT22;51229;51.980;6.722;2023-03-31T14:20:40;10.50;99.90
64796;DHT22;51229;51.980;6.722;2023-03-31T14:31:44;10.00;99.90
64796;DHT22;51229;51.980;6.722;2023-03-31T14:34:36;9.80;99.90
64796;DHT22;51229;51.980;6.722;2023-03-31T14:37:05;9.40;99.90
64796;DHT22;51229;51.980;6.722;2023-03-31T14:39:36;9.00;99.90
64796;DHT22;51229;51.980;6.722;2023-03-31T14:42:10;9.00;99.90
64796;DHT22;51229;51.980;6.722;2023-03-31T14:44:37;9.00;99.90
64796;DHT22;51229;51.980;6.722;2023-03-31T14:47:05;9.00;99.90
64796;DHT22;51229;51.980;6.722;2023-03-31T14:49:36;8.90;99.90
64796;DHT22;51229;51.980;6.722;2023-03-31T14:52:15;8.90;99.90
64796;DHT22;51229;51.980;6.722;2023-03-31T14:54:46;8.80;99.90
64796;DHT22;51229;51.980;6.722;2023-03-31T14:57:32;8.80;99.90
64796;DHT22;51229;51.980;6.722;2023-03-31T15:00:00;8.60;99.90
64796;DHT22;51229;51.980;6.722;2023-03-31T15:02:37;8.70;99.90
64796;DHT22;51229;51.980;6.722;2023-03-31T15:05:12;8.70;99.90
64796;DHT22;51229;51.980;6.722;2023-03-31T15:07:43;8.70;99.90
64796;DHT22;51229;51.980;6.722;2023-03-31T15:10:16;8.90;99.90
64796;DHT22;51229;51.980;6.722;2023-03-31T15:12:43;8.90;99.90
64796;DHT22;51229;51.980;6.722;2023-03-31T15:15:11;8.90;99.90
64796;DHT22;51229;51.980;6.722;2023-03-31T15:17:42;8.50;99.90
64796;DHT22;51229;51.980;6.722;2023-03-31T15:20:29;8.30;99.90
64796;DHT22;51229;51.980;6.722;2023-03-31T15:22:57;8.10;99.90
64796;DHT22;51229;51.980;6.722;2023-03-31T15:25:33;8.20;99.90
64796;DHT22;51229;51.980;6.722;2023-03-31T15:28:06;8.40;99.90
64796;DHT22;51229;51.980;6.722;2023-03-31T15:30:34;8.60;99.90
64796;DHT22;51229;51.980;6.722;2023-03-31T15:33:00;8.40;99.90
64796;DHT22;51229;51.980;6.722;2023-03-31T15:35:31;8.50;99.90
64796;DHT22;51229;51.980;6.722;2023-03-31T15:37:59;8.30;99.90
64796;DHT22;51229;51.980;6.722;2023-03-31T15:40:41;8.50;99.90
64796;DHT22;51229;51.980;6.722;2023-03-31T15:45:55;8.50;99.90
64796;DHT22;51229;51.980;6.722;2023-03-31T15:48:28;8.60;99.90
64796;DHT22;51229;51.980;6.722;2023-03-31T15:51:04;8.50;99.90
64796;DHT22;51229;51.980;6.722;2023-03-31T15:53:34;8.70;99.90
64796;DHT22;51229;51.980;6.722;2023-03-31T15:56:00;8.60;99.90
64796;DHT22;51229;51.980;6.722;2023-03-31T15:58:47;8.60;99.90
64796;DHT22;51229;51.980;6.722;2023-03-31T16:01:18;8.60;99.90
64796;DHT22;51229;51.980;6.722;2023-03-31T16:03:44;8.50;99.90
64796;DHT22;51229;51.980;6.722;2023-03-31T16:08:59;8.50;99.90
64796;DHT22;51229;51.980;6.722;2023-03-31T16:11:35;8.10;99.90
64796;DHT22;51229;51.980;6.722;2023-03-31T16:14:08;8.10;99.90
64796;DHT22;51229;51.980;6.722;2023-03-31T16:16:36;8.00;99.90
64796;DHT22;51229;51.980;6.722;2023-03-31T16:19:07;7.90;99.90
64796;DHT22;51229;51.980;6.722;2023-03-31T16:21:42;7.80;99.90
64796;DHT22;51229;51.980;6.722;2023-03-31T16:24:09;7.80;99.90
64796;DHT22;51229;51.980;6.722;2023-03-31T16:26:35;8.00;99.90
64796;DHT22;51229;51.980;6.722;2023-03-31T16:29:02;7.60;99.90
64796;DHT22;51229;51.980;6.722;2023-03-31T16:31:35;7.90;99.90
64796;DHT22;51229;51.980;6.722;2023-03-31T16:34:04;7.50;99.90
64796;DHT22;51229;51.980;6.722;2023-03-31T16:36:30;7.80;99.90
64796;DHT22;51229;51.980;6.722;2023-03-31T16:38:56;7.80;99.90
64796;DHT22;51229;51.980;6.722;2023-03-31T16:41:23;8.20;99.90
64796;DHT22;51229;51.980;6.722;2023-03-31T16:43:51;8.20;99.90
64796;DHT22;51229;51.980;6.722;2023-03-31T16:46:18;8.10;99.90
64796;DHT22;51229;51.980;6.722;2023-03-31T16:48:45;8.10;99.90
64796;DHT22;51229;51.980;6.722;2023-03-31T16:51:10;8.10;99.90
64796;DHT22;51229;51.980;6.722;2023-03-31T16:53:36;8.10;99.90
64796;DHT22;51229;51.980;6.722;2023-03-31T16:56:04;7.80;99.90
64796;DHT22;51229;51.980;6.722;2023-03-31T16:58:32;7.80;99.90
64796;DHT22;51229;51.980;6.722;2023-03-31T17:00:58;7.90;99.90
64796;DHT22;51229;51.980;6.722;2023-03-31T17:03:24;7.80;99.90
64796;DHT22;51229;51.980;6.722;2023-03-31T17:05:52;7.90;99.90
64796;DHT22;51229;51.980;6.722;2023-03-31T17:08:20;7.80;99.90
64796;DHT22;51229;51.980;6.722;2023-03-31T17:11:01;7.90;99.90
64796;DHT22;51229;51.980;6.722;2023-03-31T17:13:28;7.60;99.90
64796;DHT22;51229;51.980;6.722;2023-03-31T17:15:54;7.50;99.90
64796;DHT22;51229;51.980;6.722;2023-03-31T17:18:20;7.50;99.90
64796;DHT22;51229;51.980;6.722;2023-03-31T17:20:46;7.50;99.90
64796;DHT22;51229;51.980;6.722;2023-03-31T17:23:12;7.40;99.90
64796;DHT22;51229;51.980;6.722;2023-03-31T17:25:38;7.60;99.90
64796;DHT22;51229;51.980;6.722;2023-03-31T17:28:04;7.40;99.90
64796;DHT22;51229;51.980;6.722;2023-03-31T17:30:30;7.50;99.90
64796;DHT22;51229;51.980;6.722;2023-03-31T17:32:56;7.50;99.90
64796;DHT22;51229;51.980;6.722;2023-03-31T17:35:23;7.50;99.90
64796;DHT22;51229;51.980;6.722;2023-03-31T17:37:50;7.40;99.90
64796;DHT22;51229;51.980;6.722;2023-03-31T17:40:19;7.30;99.90
64796;DHT22;51229;51.980;6.722;2023-03-31T17:42:45;7.10;99.90
64796;DHT22;51229;51.980;6.722;2023-03-31T17:45:14;7.30;99.90
64796;DHT22;51229;51.980;6.722;2023-03-31T17:47:40;7.30;99.90
64796;DHT22;51229;51.980;6.722;2023-03-31T17:50:07;7.00;99.90
64796;DHT22;51229;51.980;6.722;2023-03-31T17:52:34;6.90;99.90
64796;DHT22;51229;51.980;6.722;2023-03-31T17:55:01;7.00;99.90
64796;DHT22;51229;51.980;6.722;2023-03-31T17:57:29;7.00;99.90
64796;DHT22;51229;51.980;6.722;2023-03-31T17:59:55;7.00;99.90
64796;DHT22;51229;51.980;6.722;2023-03-31T18:02:21;6.90;99.90
64796;DHT22;51229;51.980;6.722;2023-03-31T18:04:47;6.90;99.90
64796;DHT22;51229;51.980;6.722;2023-03-31T18:07:13;7.00;99.90
64796;DHT22;51229;51.980;6.722;2023-03-31T18:09:39;6.80;99.90
64796;DHT22;51229;51.980;6.722;2023-03-31T18:12:05;6.90;99.90
64796;DHT22;51229;51.980;6.722;2023-03-31T18:14:30;6.80;99.90
64796;DHT22;51229;51.980;6.722;2023-03-31T18:16:57;6.90;99.90
64796;DHT22;51229;51.980;6.722;2023-03-31T18:19:23;6.70;99.90
64796;DHT22;51229;51.980;6.722;2023-03-31T18:21:49;6.70;99.90
64796;DHT22;51229;51.980;6.722;2023-03-31T18:24:16;6.70;99.90
64796;DHT22;51229;51.980;6.722;2023-03-31T18:26:43;6.60;99.90
64796;DHT22;51229;51.980;6.722;2023-03-31T18:29:08;6.80;99.90
64796;DHT22;51229;51.980;6.722;2023-03-31T18:31:34;6.80;99.90
64796;DHT22;51229;51.980;6.722;2023-03-31T18:34:00;6.70;99.90
64796;DHT22;51229;51.980;6.722;2023-03-31T18:36:26;6.70;99.90
64796;DHT22;51229;51.980;6.722;2023-03-31T18:38:52;6.60;99.90
64796;DHT22;51229;51.980;6.722;2023-03-31T18:41:18;6.50;99.90
64796;DHT22;51229;51.980;6.722;2023-03-31T18:43:44;6.60;99.90
64796;DHT22;51229;51.980;6.722;2023-03-31T18:46:12;6.50;99.90
64796;DHT22;51229;51.980;6.722;2023-03-31T18:48:38;6.50;99.90
64796;DHT22;51229;51.980;6.722;2023-03-31T18:51:06;6.40;99.90
64796;DHT22;51229;51.980;6.722;2023-03-31T18:53:32;6.40;99.90
64796;DHT22;51229;51.980;6.722;2023-03-31T18:55:59;6.60;99.90
64796;DHT22;51229;51.980;6.722;2023-03-31T18:58:26;6.50;99.90
64796;DHT22;51229;51.980;6.722;2023-03-31T19:00:53;6.50;99.90